sensor_id;sensor_type;location;lat;lon;timestamp;P1;durP1;ratioP1;P2;durP2;ratioP2
35330;SDS011;21441;52.190;20.910;2023-06-19T00:01:07;17.45;;;14.82;;
35330;SDS011;21441;52.190;20.910;2023-06-19T00:03:40;14.25;;;12.88;;
35330;SDS011;21441;52.190;20.910;2023-06-19T00:06:07;14.65;;;13.13;;
35330;SDS011;21441;52.190;20.910;2023-06-19T00:08:34;14.73;;;12.98;;
35330;SDS011;21441;52.190;20.910;2023-06-19T00:11:02;12.55;;;11.30;;
35330;SDS011;21441;52.190;20.910;2023-06-19T00:13:30;12.70;;;11.15;;
35330;SDS011;21441;52.190;20.910;2023-06-19T00:15:59;12.48;;;11.18;;
35330;SDS011;21441;52.190;20.910;2023-06-19T00:18:26;11.68;;;10.48;;
35330;SDS011;21441;52.190;20.910;2023-06-19T00:20:54;10.98;;;9.70;;
35330;SDS011;21441;52.190;20.910;2023-06-19T00:23:22;12.98;;;9.75;;
35330;SDS011;21441;52.190;20.910;2023-06-19T00:25:49;10.75;;;9.65;;
35330;SDS011;21441;52.190;20.910;2023-06-19T00:28:16;11.32;;;10.13;;
35330;SDS011;21441;52.190;20.910;2023-06-19T00:30:46;11.90;;;9.73;;
35330;SDS011;21441;52.190;20.910;2023-06-19T00:33:13;11.48;;;10.18;;
35330;SDS011;21441;52.190;20.910;2023-06-19T00:35:40;11.50;;;10.35;;
35330;SDS011;21441;52.190;20.910;2023-06-19T00:38:09;11.40;;;10.20;;
35330;SDS011;21441;52.190;20.910;2023-06-19T00:40:36;14.13;;;11.13;;
35330;SDS011;21441;52.190;20.910;2023-06-19T00:43:03;13.70;;;12.02;;
35330;SDS011;21441;52.190;20.910;2023-06-19T00:45:30;15.77;;;11.07;;
35330;SDS011;21441;52.190;20.910;2023-06-19T00:47:59;13.07;;;11.63;;
35330;SDS011;21441;52.190;20.910;2023-06-19T00:50:27;13.40;;;11.93;;
35330;SDS011;21441;52.190;20.910;2023-06-19T00:52:55;13.90;;;12.43;;
35330;SDS011;21441;52.190;20.910;2023-06-19T00:55:23;15.32;;;10.90;;
35330;SDS011;21441;52.190;20.910;2023-06-19T00:57:52;12.48;;;11.07;;
35330;SDS011;21441;52.190;20.910;2023-06-19T01:00:18;13.70;;;11.45;;
35330;SDS011;21441;52.190;20.910;2023-06-19T01:02:46;12.13;;;10.25;;
35330;SDS011;21441;52.190;20.910;2023-06-19T01:05:15;12.90;;;10.70;;
35330;SDS011;21441;52.190;20.910;2023-06-19T01:07:44;11.77;;;10.52;;
35330;SDS011;21441;52.190;20.910;2023-06-19T01:10:20;12.15;;;10.85;;
35330;SDS011;21441;52.190;20.910;2023-06-19T01:12:52;13.00;;;11.52;;
35330;SDS011;21441;52.190;20.910;2023-06-19T01:15:23;12.40;;;11.20;;
35330;SDS011;21441;52.190;20.910;2023-06-19T01:17:50;14.75;;;12.98;;
35330;SDS011;21441;52.190;20.910;2023-06-19T01:20:19;15.00;;;13.38;;
35330;SDS011;21441;52.190;20.910;2023-06-19T01:22:48;15.57;;;12.48;;
35330;SDS011;21441;52.190;20.910;2023-06-19T01:25:15;16.40;;;13.38;;
35330;SDS011;21441;52.190;20.910;2023-06-19T01:27:42;15.52;;;12.95;;
35330;SDS011;21441;52.190;20.910;2023-06-19T01:30:11;13.90;;;12.30;;
35330;SDS011;21441;52.190;20.910;2023-06-19T01:32:41;18.05;;;13.20;;
35330;SDS011;21441;52.190;20.910;2023-06-19T01:35:13;14.25;;;12.52;;
35330;SDS011;21441;52.190;20.910;2023-06-19T01:37:44;19.00;;;12.63;;
35330;SDS011;21441;52.190;20.910;2023-06-19T01:40:14;14.60;;;13.02;;
35330;SDS011;21441;52.190;20.910;2023-06-19T01:42:42;14.95;;;13.40;;
35330;SDS011;21441;52.190;20.910;2023-06-19T01:45:10;17.65;;;13.40;;
35330;SDS011;21441;52.190;20.910;2023-06-19T01:47:37;14.43;;;12.55;;
35330;SDS011;21441;52.190;20.910;2023-06-19T01:50:04;16.52;;;13.45;;
35330;SDS011;21441;52.190;20.910;2023-06-19T01:52:32;14.82;;;13.20;;
35330;SDS011;21441;52.190;20.910;2023-06-19T01:55:00;15.25;;;13.15;;
35330;SDS011;21441;52.190;20.910;2023-06-19T01:57:29;16.52;;;13.70;;
35330;SDS011;21441;52.190;20.910;2023-06-19T01:59:57;14.63;;;12.95;;
35330;SDS011;21441;52.190;20.910;2023-06-19T02:02:24;16.23;;;13.55;;
35330;SDS011;21441;52.190;20.910;2023-06-19T02:04:51;16.58;;;13.95;;
35330;SDS011;21441;52.190;20.910;2023-06-19T02:07:18;17.13;;;14.02;;
35330;SDS011;21441;52.190;20.910;2023-06-19T02:09:45;16.55;;;13.70;;
35330;SDS011;21441;52.190;20.910;2023-06-19T02:12:12;15.75;;;13.90;;
35330;SDS011;21441;52.190;20.910;2023-06-19T02:14:40;14.95;;;12.60;;
35330;SDS011;21441;52.190;20.910;2023-06-19T02:17:07;16.05;;;13.35;;
35330;SDS011;21441;52.190;20.910;2023-06-19T02:19:34;14.70;;;13.07;;
35330;SDS011;21441;52.190;20.910;2023-06-19T02:22:01;13.57;;;12.13;;
35330;SDS011;21441;52.190;20.910;2023-06-19T02:24:28;15.77;;;12.55;;
35330;SDS011;21441;52.190;20.910;2023-06-19T02:26:56;13.07;;;11.70;;
35330;SDS011;21441;52.190;20.910;2023-06-19T02:29:23;15.60;;;12.07;;
35330;SDS011;21441;52.190;20.910;2023-06-19T02:31:52;14.55;;;12.05;;
35330;SDS011;21441;52.190;20.910;2023-06-19T02:34:18;19.45;;;11.95;;
35330;SDS011;21441;52.190;20.910;2023-06-19T02:36:45;15.32;;;11.93;;
35330;SDS011;21441;52.190;20.910;2023-06-19T02:39:12;14.13;;;11.80;;
35330;SDS011;21441;52.190;20.910;2023-06-19T02:41:40;12.82;;;11.52;;
35330;SDS011;21441;52.190;20.910;2023-06-19T02:44:08;13.10;;;11.35;;
35330;SDS011;21441;52.190;20.910;2023-06-19T02:46:35;12.85;;;11.55;;
35330;SDS011;21441;52.190;20.910;2023-06-19T02:49:03;12.35;;;11.00;;
35330;SDS011;21441;52.190;20.910;2023-06-19T02:51:30;16.33;;;11.88;;
35330;SDS011;21441;52.190;20.910;2023-06-19T02:53:57;15.40;;;11.90;;
35330;SDS011;21441;52.190;20.910;2023-06-19T02:56:26;15.02;;;11.82;;
35330;SDS011;21441;52.190;20.910;2023-06-19T02:58:53;12.25;;;11.05;;
35330;SDS011;21441;52.190;20.910;2023-06-19T03:01:20;13.40;;;11.57;;
35330;SDS011;21441;52.190;20.910;2023-06-19T03:03:47;15.32;;;12.38;;
35330;SDS011;21441;52.190;20.910;2023-06-19T03:06:15;14.43;;;12.45;;
35330;SDS011;21441;52.190;20.910;2023-06-19T03:08:43;14.63;;;13.00;;
35330;SDS011;21441;52.190;20.910;2023-06-19T03:11:11;13.20;;;11.80;;
35330;SDS011;21441;52.190;20.910;2023-06-19T03:13:43;17.27;;;13.15;;
35330;SDS011;21441;52.190;20.910;2023-06-19T03:16:12;14.82;;;13.05;;
35330;SDS011;21441;52.190;20.910;2023-06-19T03:18:40;15.98;;;12.70;;
35330;SDS011;21441;52.190;20.910;2023-06-19T03:21:07;15.82;;;12.30;;
35330;SDS011;21441;52.190;20.910;2023-06-19T03:23:35;13.48;;;12.02;;
35330;SDS011;21441;52.190;20.910;2023-06-19T03:26:02;14.20;;;11.93;;
35330;SDS011;21441;52.190;20.910;2023-06-19T03:28:29;13.57;;;11.93;;
35330;SDS011;21441;52.190;20.910;2023-06-19T03:30:56;13.18;;;11.77;;
35330;SDS011;21441;52.190;20.910;2023-06-19T03:33:23;16.05;;;11.75;;
35330;SDS011;21441;52.190;20.910;2023-06-19T03:35:50;14.95;;;12.45;;
35330;SDS011;21441;52.190;20.910;2023-06-19T03:38:17;14.38;;;11.93;;
35330;SDS011;21441;52.190;20.910;2023-06-19T03:40:45;13.35;;;11.95;;
35330;SDS011;21441;52.190;20.910;2023-06-19T03:43:12;13.85;;;12.45;;
35330;SDS011;21441;52.190;20.910;2023-06-19T03:45:39;12.52;;;11.27;;
35330;SDS011;21441;52.190;20.910;2023-06-19T03:48:06;12.25;;;10.95;;
35330;SDS011;21441;52.190;20.910;2023-06-19T03:50:33;13.88;;;12.48;;
35330;SDS011;21441;52.190;20.910;2023-06-19T03:53:00;17.13;;;11.20;;
35330;SDS011;21441;52.190;20.910;2023-06-19T03:55:27;12.25;;;11.00;;
35330;SDS011;21441;52.190;20.910;2023-06-19T03:57:55;14.63;;;12.80;;
35330;SDS011;21441;52.190;20.910;2023-06-19T04:00:22;18.08;;;12.27;;
35330;SDS011;21441;52.190;20.910;2023-06-19T04:02:49;13.93;;;12.57;;
35330;SDS011;21441;52.190;20.910;2023-06-19T04:05:16;13.95;;;11.95;;
35330;SDS011;21441;52.190;20.910;2023-06-19T04:07:43;13.02;;;11.70;;
35330;SDS011;21441;52.190;20.910;2023-06-19T04:10:10;14.70;;;11.23;;
35330;SDS011;21441;52.190;20.910;2023-06-19T04:12:37;15.82;;;12.88;;
35330;SDS011;21441;52.190;20.910;2023-06-19T04:15:07;14.98;;;13.25;;
35330;SDS011;21441;52.190;20.910;2023-06-19T04:17:34;14.23;;;12.63;;
35330;SDS011;21441;52.190;20.910;2023-06-19T04:20:01;14.18;;;12.02;;
35330;SDS011;21441;52.190;20.910;2023-06-19T04:22:32;13.65;;;12.35;;
35330;SDS011;21441;52.190;20.910;2023-06-19T04:24:59;14.75;;;12.65;;
35330;SDS011;21441;52.190;20.910;2023-06-19T04:27:26;15.60;;;14.02;;
35330;SDS011;21441;52.190;20.910;2023-06-19T04:29:53;17.35;;;14.07;;
35330;SDS011;21441;52.190;20.910;2023-06-19T04:32:21;14.57;;;13.18;;
35330;SDS011;21441;52.190;20.910;2023-06-19T04:34:48;14.35;;;12.85;;
35330;SDS011;21441;52.190;20.910;2023-06-19T04:37:15;15.32;;;13.73;;
35330;SDS011;21441;52.190;20.910;2023-06-19T04:39:44;13.53;;;12.20;;
35330;SDS011;21441;52.190;20.910;2023-06-19T04:42:12;14.77;;;12.40;;
35330;SDS011;21441;52.190;20.910;2023-06-19T04:44:45;14.38;;;12.90;;
35330;SDS011;21441;52.190;20.910;2023-06-19T04:47:11;12.80;;;11.50;;
35330;SDS011;21441;52.190;20.910;2023-06-19T04:49:40;15.52;;;13.68;;
35330;SDS011;21441;52.190;20.910;2023-06-19T04:52:07;15.15;;;13.18;;
35330;SDS011;21441;52.190;20.910;2023-06-19T04:54:34;16.80;;;13.85;;
35330;SDS011;21441;52.190;20.910;2023-06-19T04:57:01;14.13;;;12.63;;
35330;SDS011;21441;52.190;20.910;2023-06-19T04:59:29;18.27;;;15.00;;
35330;SDS011;21441;52.190;20.910;2023-06-19T05:01:57;16.08;;;14.38;;
35330;SDS011;21441;52.190;20.910;2023-06-19T05:04:24;14.60;;;13.20;;
35330;SDS011;21441;52.190;20.910;2023-06-19T05:06:52;14.88;;;13.38;;
35330;SDS011;21441;52.190;20.910;2023-06-19T05:09:19;14.45;;;13.05;;
35330;SDS011;21441;52.190;20.910;2023-06-19T05:11:47;16.25;;;12.60;;
35330;SDS011;21441;52.190;20.910;2023-06-19T05:14:14;13.85;;;12.48;;
35330;SDS011;21441;52.190;20.910;2023-06-19T05:16:41;14.50;;;13.00;;
35330;SDS011;21441;52.190;20.910;2023-06-19T05:19:08;15.35;;;13.75;;
35330;SDS011;21441;52.190;20.910;2023-06-19T05:21:35;14.77;;;13.27;;
35330;SDS011;21441;52.190;20.910;2023-06-19T05:24:03;13.93;;;12.63;;
35330;SDS011;21441;52.190;20.910;2023-06-19T05:26:31;14.15;;;12.75;;
35330;SDS011;21441;52.190;20.910;2023-06-19T05:28:59;16.13;;;13.75;;
35330;SDS011;21441;52.190;20.910;2023-06-19T05:31:26;12.90;;;11.70;;
35330;SDS011;21441;52.190;20.910;2023-06-19T05:33:53;15.23;;;12.63;;
35330;SDS011;21441;52.190;20.910;2023-06-19T05:36:19;14.23;;;12.82;;
35330;SDS011;21441;52.190;20.910;2023-06-19T05:38:47;14.90;;;13.30;;
35330;SDS011;21441;52.190;20.910;2023-06-19T05:41:15;14.55;;;12.95;;
35330;SDS011;21441;52.190;20.910;2023-06-19T05:43:42;13.93;;;12.45;;
35330;SDS011;21441;52.190;20.910;2023-06-19T05:46:09;14.13;;;12.75;;
35330;SDS011;21441;52.190;20.910;2023-06-19T05:48:37;14.60;;;13.10;;
35330;SDS011;21441;52.190;20.910;2023-06-19T05:51:04;17.95;;;14.15;;
35330;SDS011;21441;52.190;20.910;2023-06-19T05:53:31;15.05;;;13.65;;
35330;SDS011;21441;52.190;20.910;2023-06-19T05:55:58;14.00;;;12.50;;
35330;SDS011;21441;52.190;20.910;2023-06-19T05:58:26;14.80;;;13.35;;
35330;SDS011;21441;52.190;20.910;2023-06-19T06:00:53;12.73;;;10.43;;
35330;SDS011;21441;52.190;20.910;2023-06-19T06:03:23;12.55;;;11.25;;
35330;SDS011;21441;52.190;20.910;2023-06-19T06:05:50;10.75;;;9.65;;
35330;SDS011;21441;52.190;20.910;2023-06-19T06:08:18;11.52;;;10.32;;
35330;SDS011;21441;52.190;20.910;2023-06-19T06:10:45;11.80;;;10.60;;
35330;SDS011;21441;52.190;20.910;2023-06-19T06:13:12;12.32;;;11.05;;
35330;SDS011;21441;52.190;20.910;2023-06-19T06:15:40;10.93;;;9.93;;
35330;SDS011;21441;52.190;20.910;2023-06-19T06:18:07;10.80;;;9.77;;
35330;SDS011;21441;52.190;20.910;2023-06-19T06:20:34;8.23;;;7.43;;
35330;SDS011;21441;52.190;20.910;2023-06-19T06:23:01;9.30;;;8.30;;
35330;SDS011;21441;52.190;20.910;2023-06-19T06:25:28;8.27;;;7.50;;
35330;SDS011;21441;52.190;20.910;2023-06-19T06:27:56;9.15;;;8.18;;
35330;SDS011;21441;52.190;20.910;2023-06-19T06:30:22;8.63;;;7.82;;
35330;SDS011;21441;52.190;20.910;2023-06-19T06:32:51;8.90;;;8.00;;
35330;SDS011;21441;52.190;20.910;2023-06-19T06:35:18;5.63;;;5.15;;
35330;SDS011;21441;52.190;20.910;2023-06-19T06:37:45;6.40;;;5.80;;
35330;SDS011;21441;52.190;20.910;2023-06-19T06:40:15;6.60;;;5.93;;
35330;SDS011;21441;52.190;20.910;2023-06-19T06:42:42;8.25;;;6.50;;
35330;SDS011;21441;52.190;20.910;2023-06-19T06:45:09;6.97;;;6.30;;
35330;SDS011;21441;52.190;20.910;2023-06-19T06:47:37;7.13;;;6.50;;
35330;SDS011;21441;52.190;20.910;2023-06-19T06:50:07;8.05;;;6.78;;
35330;SDS011;21441;52.190;20.910;2023-06-19T06:55:02;7.90;;;6.82;;
35330;SDS011;21441;52.190;20.910;2023-06-19T06:57:29;8.02;;;7.22;;
35330;SDS011;21441;52.190;20.910;2023-06-19T06:59:56;8.80;;;7.85;;
35330;SDS011;21441;52.190;20.910;2023-06-19T07:02:23;7.75;;;6.40;;
35330;SDS011;21441;52.190;20.910;2023-06-19T07:04:50;6.70;;;5.85;;
35330;SDS011;21441;52.190;20.910;2023-06-19T07:07:19;6.60;;;6.00;;
35330;SDS011;21441;52.190;20.910;2023-06-19T07:09:46;7.70;;;6.82;;
35330;SDS011;21441;52.190;20.910;2023-06-19T07:12:13;8.45;;;6.93;;
35330;SDS011;21441;52.190;20.910;2023-06-19T07:14:40;7.88;;;7.18;;
35330;SDS011;21441;52.190;20.910;2023-06-19T07:17:07;9.80;;;7.25;;
35330;SDS011;21441;52.190;20.910;2023-06-19T07:19:34;9.10;;;7.45;;
35330;SDS011;21441;52.190;20.910;2023-06-19T07:22:01;8.75;;;7.93;;
35330;SDS011;21441;52.190;20.910;2023-06-19T07:24:30;7.70;;;7.00;;
35330;SDS011;21441;52.190;20.910;2023-06-19T07:26:57;8.05;;;6.97;;
35330;SDS011;21441;52.190;20.910;2023-06-19T07:29:24;9.95;;;6.90;;
35330;SDS011;21441;52.190;20.910;2023-06-19T07:31:52;7.55;;;6.75;;
35330;SDS011;21441;52.190;20.910;2023-06-19T07:34:18;7.57;;;6.88;;
35330;SDS011;21441;52.190;20.910;2023-06-19T07:36:47;8.07;;;7.28;;
35330;SDS011;21441;52.190;20.910;2023-06-19T07:39:14;9.50;;;7.72;;
35330;SDS011;21441;52.190;20.910;2023-06-19T07:41:42;8.35;;;7.57;;
35330;SDS011;21441;52.190;20.910;2023-06-19T07:44:11;8.68;;;7.18;;
35330;SDS011;21441;52.190;20.910;2023-06-19T07:46:38;8.55;;;7.57;;
35330;SDS011;21441;52.190;20.910;2023-06-19T07:49:05;8.50;;;7.28;;
35330;SDS011;21441;52.190;20.910;2023-06-19T07:51:32;7.85;;;7.15;;
35330;SDS011;21441;52.190;20.910;2023-06-19T07:53:59;8.30;;;7.47;;
35330;SDS011;21441;52.190;20.910;2023-06-19T07:56:26;8.75;;;7.65;;
35330;SDS011;21441;52.190;20.910;2023-06-19T07:58:54;8.57;;;7.85;;
35330;SDS011;21441;52.190;20.910;2023-06-19T08:01:21;8.25;;;7.45;;
35330;SDS011;21441;52.190;20.910;2023-06-19T08:03:48;7.85;;;7.15;;
35330;SDS011;21441;52.190;20.910;2023-06-19T08:06:15;7.80;;;6.65;;
35330;SDS011;21441;52.190;20.910;2023-06-19T08:08:42;7.53;;;6.82;;
35330;SDS011;21441;52.190;20.910;2023-06-19T08:11:09;6.60;;;6.05;;
35330;SDS011;21441;52.190;20.910;2023-06-19T08:13:36;7.32;;;6.68;;
35330;SDS011;21441;52.190;20.910;2023-06-19T08:16:05;6.90;;;6.30;;
35330;SDS011;21441;52.190;20.910;2023-06-19T08:18:33;7.32;;;6.63;;
35330;SDS011;21441;52.190;20.910;2023-06-19T08:21:00;7.05;;;6.45;;
35330;SDS011;21441;52.190;20.910;2023-06-19T08:23:27;6.95;;;6.35;;
35330;SDS011;21441;52.190;20.910;2023-06-19T08:25:54;7.03;;;6.43;;
35330;SDS011;21441;52.190;20.910;2023-06-19T08:28:21;7.30;;;6.60;;
35330;SDS011;21441;52.190;20.910;2023-06-19T08:30:49;6.93;;;6.22;;
35330;SDS011;21441;52.190;20.910;2023-06-19T08:33:17;7.20;;;6.50;;
35330;SDS011;21441;52.190;20.910;2023-06-19T08:35:44;10.38;;;6.68;;
35330;SDS011;21441;52.190;20.910;2023-06-19T08:38:13;7.43;;;6.82;;
35330;SDS011;21441;52.190;20.910;2023-06-19T08:40:41;6.75;;;6.15;;
35330;SDS011;21441;52.190;20.910;2023-06-19T08:43:08;5.78;;;5.28;;
35330;SDS011;21441;52.190;20.910;2023-06-19T08:45:36;6.00;;;5.45;;
35330;SDS011;21441;52.190;20.910;2023-06-19T08:48:03;6.72;;;6.13;;
35330;SDS011;21441;52.190;20.910;2023-06-19T08:50:32;6.68;;;6.07;;
35330;SDS011;21441;52.190;20.910;2023-06-19T08:52:59;6.60;;;5.95;;
35330;SDS011;21441;52.190;20.910;2023-06-19T08:55:27;5.97;;;5.47;;
35330;SDS011;21441;52.190;20.910;2023-06-19T08:57:54;6.68;;;5.22;;
35330;SDS011;21441;52.190;20.910;2023-06-19T09:00:24;6.15;;;5.65;;
35330;SDS011;21441;52.190;20.910;2023-06-19T09:02:58;7.47;;;6.10;;
35330;SDS011;21441;52.190;20.910;2023-06-19T09:05:27;7.30;;;6.10;;
35330;SDS011;21441;52.190;20.910;2023-06-19T09:07:55;8.60;;;5.57;;
35330;SDS011;21441;52.190;20.910;2023-06-19T09:12:57;6.60;;;6.10;;
35330;SDS011;21441;52.190;20.910;2023-06-19T09:15:29;7.55;;;6.68;;
35330;SDS011;21441;52.190;20.910;2023-06-19T09:18:01;6.38;;;5.88;;
35330;SDS011;21441;52.190;20.910;2023-06-19T09:20:32;6.70;;;5.97;;
35330;SDS011;21441;52.190;20.910;2023-06-19T09:23:02;6.60;;;6.00;;
35330;SDS011;21441;52.190;20.910;2023-06-19T09:25:30;6.13;;;5.63;;
35330;SDS011;21441;52.190;20.910;2023-06-19T09:27:57;6.25;;;5.72;;
35330;SDS011;21441;52.190;20.910;2023-06-19T09:30:24;6.18;;;5.68;;
35330;SDS011;21441;52.190;20.910;2023-06-19T09:32:51;6.30;;;5.70;;
35330;SDS011;21441;52.190;20.910;2023-06-19T09:35:18;6.07;;;5.55;;
35330;SDS011;21441;52.190;20.910;2023-06-19T09:37:46;6.05;;;5.55;;
35330;SDS011;21441;52.190;20.910;2023-06-19T09:40:15;5.78;;;5.28;;
35330;SDS011;21441;52.190;20.910;2023-06-19T09:42:42;5.75;;;5.25;;
35330;SDS011;21441;52.190;20.910;2023-06-19T09:45:11;5.90;;;5.30;;
35330;SDS011;21441;52.190;20.910;2023-06-19T09:47:42;5.03;;;4.63;;
35330;SDS011;21441;52.190;20.910;2023-06-19T09:50:11;5.20;;;4.70;;
35330;SDS011;21441;52.190;20.910;2023-06-19T09:52:39;5.87;;;4.77;;
35330;SDS011;21441;52.190;20.910;2023-06-19T09:55:08;4.60;;;4.20;;
35330;SDS011;21441;52.190;20.910;2023-06-19T09:57:39;4.82;;;4.43;;
35330;SDS011;21441;52.190;20.910;2023-06-19T10:00:08;5.47;;;4.97;;
35330;SDS011;21441;52.190;20.910;2023-06-19T10:02:38;5.28;;;4.68;;
35330;SDS011;21441;52.190;20.910;2023-06-19T10:05:07;6.00;;;5.25;;
35330;SDS011;21441;52.190;20.910;2023-06-19T10:07:37;5.45;;;4.97;;
35330;SDS011;21441;52.190;20.910;2023-06-19T10:10:07;5.32;;;4.93;;
35330;SDS011;21441;52.190;20.910;2023-06-19T10:12:36;4.73;;;4.17;;
35330;SDS011;21441;52.190;20.910;2023-06-19T10:15:10;5.40;;;4.90;;
35330;SDS011;21441;52.190;20.910;2023-06-19T10:17:42;4.63;;;4.22;;
35330;SDS011;21441;52.190;20.910;2023-06-19T10:22:57;5.70;;;4.30;;
35330;SDS011;21441;52.190;20.910;2023-06-19T10:25:28;4.70;;;4.07;;
35330;SDS011;21441;52.190;20.910;2023-06-19T10:27:57;4.65;;;4.25;;
35330;SDS011;21441;52.190;20.910;2023-06-19T10:30:26;5.10;;;4.65;;
35330;SDS011;21441;52.190;20.910;2023-06-19T10:32:53;4.75;;;4.28;;
35330;SDS011;21441;52.190;20.910;2023-06-19T10:35:20;4.53;;;4.13;;
35330;SDS011;21441;52.190;20.910;2023-06-19T10:37:49;5.15;;;4.65;;
35330;SDS011;21441;52.190;20.910;2023-06-19T10:40:17;4.82;;;4.43;;
35330;SDS011;21441;52.190;20.910;2023-06-19T10:42:44;4.68;;;4.13;;
35330;SDS011;21441;52.190;20.910;2023-06-19T10:45:11;4.22;;;3.83;;
35330;SDS011;21441;52.190;20.910;2023-06-19T10:47:42;4.30;;;4.00;;
35330;SDS011;21441;52.190;20.910;2023-06-19T10:50:10;3.90;;;3.60;;
35330;SDS011;21441;52.190;20.910;2023-06-19T10:52:41;4.65;;;4.25;;
35330;SDS011;21441;52.190;20.910;2023-06-19T10:55:10;5.88;;;5.38;;
35330;SDS011;21441;52.190;20.910;2023-06-19T10:57:38;5.70;;;3.92;;
35330;SDS011;21441;52.190;20.910;2023-06-19T11:00:06;4.65;;;4.03;;
35330;SDS011;21441;52.190;20.910;2023-06-19T11:02:40;4.20;;;3.38;;
35330;SDS011;21441;52.190;20.910;2023-06-19T11:05:10;4.80;;;4.30;;
35330;SDS011;21441;52.190;20.910;2023-06-19T11:07:39;5.07;;;4.28;;
35330;SDS011;21441;52.190;20.910;2023-06-19T11:10:07;4.80;;;4.40;;
35330;SDS011;21441;52.190;20.910;2023-06-19T11:12:34;4.72;;;4.32;;
35330;SDS011;21441;52.190;20.910;2023-06-19T11:15:04;4.80;;;4.40;;
35330;SDS011;21441;52.190;20.910;2023-06-19T11:17:32;5.05;;;4.50;;
35330;SDS011;21441;52.190;20.910;2023-06-19T11:19:59;5.40;;;4.88;;
35330;SDS011;21441;52.190;20.910;2023-06-19T11:25:12;5.70;;;5.10;;
35330;SDS011;21441;52.190;20.910;2023-06-19T11:27:39;4.80;;;4.40;;
35330;SDS011;21441;52.190;20.910;2023-06-19T11:30:06;5.55;;;5.05;;
35330;SDS011;21441;52.190;20.910;2023-06-19T11:32:36;5.20;;;4.70;;
35330;SDS011;21441;52.190;20.910;2023-06-19T11:35:08;5.45;;;4.68;;
35330;SDS011;21441;52.190;20.910;2023-06-19T11:37:39;4.82;;;4.28;;
35330;SDS011;21441;52.190;20.910;2023-06-19T11:42:51;5.75;;;5.25;;
35330;SDS011;21441;52.190;20.910;2023-06-19T11:45:20;5.20;;;4.70;;
35330;SDS011;21441;52.190;20.910;2023-06-19T11:47:47;5.63;;;5.03;;
35330;SDS011;21441;52.190;20.910;2023-06-19T11:50:16;5.47;;;5.00;;
35330;SDS011;21441;52.190;20.910;2023-06-19T11:52:44;5.53;;;4.72;;
35330;SDS011;21441;52.190;20.910;2023-06-19T11:55:14;7.13;;;4.95;;
35330;SDS011;21441;52.190;20.910;2023-06-19T11:57:42;5.00;;;4.57;;
35330;SDS011;21441;52.190;20.910;2023-06-19T12:00:13;5.82;;;4.93;;
35330;SDS011;21441;52.190;20.910;2023-06-19T12:02:43;5.70;;;4.80;;
35330;SDS011;21441;52.190;20.910;2023-06-19T12:05:12;6.43;;;5.70;;
35330;SDS011;21441;52.190;20.910;2023-06-19T12:07:39;7.88;;;6.90;;
35330;SDS011;21441;52.190;20.910;2023-06-19T12:10:07;6.10;;;5.55;;
35330;SDS011;21441;52.190;20.910;2023-06-19T12:12:38;5.45;;;5.05;;
35330;SDS011;21441;52.190;20.910;2023-06-19T12:15:06;5.28;;;4.78;;
35330;SDS011;21441;52.190;20.910;2023-06-19T12:17:33;5.22;;;4.82;;
35330;SDS011;21441;52.190;20.910;2023-06-19T12:20:01;5.35;;;4.85;;
35330;SDS011;21441;52.190;20.910;2023-06-19T12:22:31;5.53;;;4.85;;
35330;SDS011;21441;52.190;20.910;2023-06-19T12:24:58;6.72;;;6.13;;
35330;SDS011;21441;52.190;20.910;2023-06-19T12:27:25;5.30;;;4.25;;
35330;SDS011;21441;52.190;20.910;2023-06-19T12:29:54;6.25;;;5.15;;
35330;SDS011;21441;52.190;20.910;2023-06-19T12:32:21;5.35;;;4.22;;
35330;SDS011;21441;52.190;20.910;2023-06-19T12:34:49;4.40;;;4.00;;
35330;SDS011;21441;52.190;20.910;2023-06-19T12:37:19;4.18;;;3.85;;
35330;SDS011;21441;52.190;20.910;2023-06-19T12:39:48;4.10;;;3.80;;
35330;SDS011;21441;52.190;20.910;2023-06-19T12:42:16;4.60;;;4.20;;
35330;SDS011;21441;52.190;20.910;2023-06-19T12:44:43;4.80;;;4.40;;
35330;SDS011;21441;52.190;20.910;2023-06-19T12:47:12;5.60;;;5.10;;
35330;SDS011;21441;52.190;20.910;2023-06-19T12:49:40;6.10;;;5.18;;
35330;SDS011;21441;52.190;20.910;2023-06-19T12:52:07;5.13;;;4.70;;
35330;SDS011;21441;52.190;20.910;2023-06-19T12:54:35;5.20;;;4.80;;
35330;SDS011;21441;52.190;20.910;2023-06-19T12:57:02;5.13;;;4.53;;
35330;SDS011;21441;52.190;20.910;2023-06-19T12:59:29;5.15;;;4.57;;
35330;SDS011;21441;52.190;20.910;2023-06-19T13:01:58;5.07;;;4.68;;
35330;SDS011;21441;52.190;20.910;2023-06-19T13:04:26;6.82;;;4.32;;
35330;SDS011;21441;52.190;20.910;2023-06-19T13:06:53;4.10;;;3.80;;
35330;SDS011;21441;52.190;20.910;2023-06-19T13:09:20;4.72;;;4.22;;
35330;SDS011;21441;52.190;20.910;2023-06-19T13:11:47;5.43;;;4.97;;
35330;SDS011;21441;52.190;20.910;2023-06-19T13:14:15;6.93;;;5.90;;
35330;SDS011;21441;52.190;20.910;2023-06-19T13:16:42;4.18;;;3.78;;
35330;SDS011;21441;52.190;20.910;2023-06-19T13:19:09;5.15;;;4.75;;
35330;SDS011;21441;52.190;20.910;2023-06-19T13:21:37;4.68;;;4.35;;
35330;SDS011;21441;52.190;20.910;2023-06-19T13:24:04;4.90;;;4.47;;
35330;SDS011;21441;52.190;20.910;2023-06-19T13:26:31;4.05;;;3.63;;
35330;SDS011;21441;52.190;20.910;2023-06-19T13:28:58;4.45;;;4.05;;
35330;SDS011;21441;52.190;20.910;2023-06-19T13:31:26;4.22;;;3.83;;
35330;SDS011;21441;52.190;20.910;2023-06-19T13:33:53;3.92;;;3.58;;
35330;SDS011;21441;52.190;20.910;2023-06-19T13:36:20;4.70;;;4.30;;
35330;SDS011;21441;52.190;20.910;2023-06-19T13:38:50;5.13;;;4.60;;
35330;SDS011;21441;52.190;20.910;2023-06-19T13:41:17;4.38;;;3.92;;
35330;SDS011;21441;52.190;20.910;2023-06-19T13:43:45;4.32;;;3.88;;
35330;SDS011;21441;52.190;20.910;2023-06-19T13:46:12;3.70;;;3.47;;
35330;SDS011;21441;52.190;20.910;2023-06-19T13:48:40;11.95;;;10.77;;
35330;SDS011;21441;52.190;20.910;2023-06-19T13:51:07;3.90;;;3.60;;
35330;SDS011;21441;52.190;20.910;2023-06-19T13:53:34;6.78;;;4.85;;
35330;SDS011;21441;52.190;20.910;2023-06-19T13:56:02;4.65;;;4.25;;
35330;SDS011;21441;52.190;20.910;2023-06-19T13:58:30;5.70;;;4.18;;
35330;SDS011;21441;52.190;20.910;2023-06-19T14:00:57;5.53;;;5.03;;
35330;SDS011;21441;52.190;20.910;2023-06-19T14:03:24;5.13;;;4.63;;
35330;SDS011;21441;52.190;20.910;2023-06-19T14:05:51;6.43;;;4.32;;
35330;SDS011;21441;52.190;20.910;2023-06-19T14:08:18;4.85;;;4.45;;
35330;SDS011;21441;52.190;20.910;2023-06-19T14:10:45;4.72;;;4.32;;
35330;SDS011;21441;52.190;20.910;2023-06-19T14:13:14;4.90;;;4.50;;
35330;SDS011;21441;52.190;20.910;2023-06-19T14:15:40;5.45;;;4.95;;
35330;SDS011;21441;52.190;20.910;2023-06-19T14:18:08;4.95;;;4.45;;
35330;SDS011;21441;52.190;20.910;2023-06-19T14:20:35;4.18;;;3.88;;
35330;SDS011;21441;52.190;20.910;2023-06-19T14:23:02;5.57;;;4.03;;
35330;SDS011;21441;52.190;20.910;2023-06-19T14:25:29;4.57;;;3.97;;
35330;SDS011;21441;52.190;20.910;2023-06-19T14:27:56;4.90;;;4.50;;
35330;SDS011;21441;52.190;20.910;2023-06-19T14:30:24;4.25;;;3.85;;
35330;SDS011;21441;52.190;20.910;2023-06-19T14:32:51;4.53;;;4.00;;
35330;SDS011;21441;52.190;20.910;2023-06-19T14:35:18;5.43;;;5.03;;
35330;SDS011;21441;52.190;20.910;2023-06-19T14:37:45;4.35;;;3.90;;
35330;SDS011;21441;52.190;20.910;2023-06-19T14:40:12;4.32;;;3.53;;